»·PEaware :: UAL370 KSAN-KSFO

UAL370 :: KSAN-KSFO

FLIGHT INFORMATION

Flight Status: Arrived
Operator:
United Airlines
More flights by this operator :: More flights under this callsign
Pilot: Saso K. (7898)
Aircraft: AIRBUS A320
(A320)
More flights by this aircraft type
Origin: KSAN San Diego Intl-Lindbergh
United States
Destination: KSFO San Francisco Intl
United States
More flights between these airports :: More routes between these airports
Route: PEBLE6 SXC RZS SERFR SERFR2
File this flight plan on PilotEdge
Remarks:
Altitude:
(Current/Filed)
38,000ft
Speed:
(Current/Filed)
452kts
Departed: 17-Nov-17 02:24 PM
Arrived: 17-Nov-17 03:36 PM
Distance/Time
Traveled:
389nm/1:12
Distance/Time
To Go:
Arrived

Flight Plot

Page will automatically refresh every two minutes.


Map Options




Map Legend


Flown Route
Filed Route
Departure Airport
Arrival Airport
Navaid (VOR, NDB)
Fix

Horizontal Profiles

Position Reports

Time Latitude Longitude Heading Altitude Ground
Speed
17-Nov-17 13:40 32.733622 -117.197752 0 19ft 0kts
17-Nov-17 13:41 32.733622 -117.197752 254 19ft 0kts
17-Nov-17 13:42 32.733750 -117.203534 270 19ft 0kts
17-Nov-17 13:43 32.733750 -117.203534 270 19ft 0kts
17-Nov-17 13:44 32.733750 -117.203534 270 19ft 0kts
17-Nov-17 13:45 32.733750 -117.203534 270 19ft 0kts
17-Nov-17 13:46 32.733750 -117.203534 270 19ft 0kts
17-Nov-17 13:47 32.733750 -117.203533 270 19ft 0kts
17-Nov-17 13:48 32.733750 -117.203533 270 19ft 0kts
17-Nov-17 13:49 32.733750 -117.203533 270 19ft 0kts
17-Nov-17 13:50 32.733750 -117.203533 270 19ft 0kts
17-Nov-17 13:51 32.733750 -117.203533 270 19ft 0kts
17-Nov-17 13:52 32.733750 -117.203533 270 19ft 0kts
17-Nov-17 13:53 32.733750 -117.203533 270 19ft 0kts
17-Nov-17 13:54 32.733750 -117.203533 270 19ft 0kts
17-Nov-17 13:55 32.733750 -117.203533 270 19ft 0kts
17-Nov-17 13:56 32.733750 -117.203533 270 19ft 0kts
17-Nov-17 13:57 32.733750 -117.203533 270 19ft 0kts
17-Nov-17 13:58 32.733750 -117.203533 270 19ft 0kts
17-Nov-17 13:59 32.733750 -117.203533 270 19ft 0kts
17-Nov-17 14:00 32.733750 -117.203533 270 19ft 0kts
17-Nov-17 14:01 32.733750 -117.203533 270 19ft 0kts
17-Nov-17 14:02 32.733750 -117.203533 270 19ft 0kts
17-Nov-17 14:03 32.733750 -117.203533 270 19ft 0kts
17-Nov-17 14:04 32.733750 -117.203533 270 19ft 0kts
17-Nov-17 14:05 32.733750 -117.203533 270 19ft 0kts
17-Nov-17 14:06 32.733750 -117.203533 270 19ft 0kts
17-Nov-17 14:07 32.733750 -117.203533 270 19ft 0kts
17-Nov-17 14:08 32.733750 -117.203533 270 19ft 0kts
17-Nov-17 14:09 32.733750 -117.203533 270 19ft 0kts
17-Nov-17 14:10 32.733750 -117.203533 270 19ft 0kts
17-Nov-17 14:11 32.733750 -117.203533 270 19ft 0kts
17-Nov-17 14:12 32.733750 -117.203533 270 19ft 0kts
17-Nov-17 14:13 32.733750 -117.203533 270 19ft 0kts
17-Nov-17 14:14 32.733750 -117.203533 270 19ft 0kts
17-Nov-17 14:15 32.733750 -117.203533 270 19ft 0kts
17-Nov-17 14:16 32.733750 -117.203533 270 19ft 0kts
17-Nov-17 14:17 32.733750 -117.203533 270 19ft 0kts
17-Nov-17 14:18 32.733744 -117.203139 283 19ft 2kts
17-Nov-17 14:19 32.733373 -117.202643 342 19ft 0kts
17-Nov-17 14:20 32.733306 -117.202622 346 19ft 0kts
17-Nov-17 14:21 32.733306 -117.202622 346 19ft 0kts
17-Nov-17 14:22 32.733306 -117.202622 346 19ft 0kts
17-Nov-17 14:23 32.733460 -117.202664 348 19ft 3kts
17-Nov-17 14:24 32.735409 -117.201652 99 19ft 12kts
17-Nov-17 14:25 32.734119 -117.196282 106 20ft 19kts
17-Nov-17 14:26 32.732552 -117.189795 106 21ft 22kts
17-Nov-17 14:27 32.730587 -117.181689 104 19ft 27kts
17-Nov-17 14:28 32.729629 -117.176107 68 25ft 8kts
17-Nov-17 14:29 32.730784 -117.178207 286 24ft 72kts
17-Nov-17 14:30 32.747284 -117.225397 304 2148ft 182kts
17-Nov-17 14:31 32.781334 -117.282939 305 4641ft 251kts
17-Nov-17 14:32 32.823634 -117.354824 305 7982ft 276kts
17-Nov-17 14:33 32.867850 -117.428117 305 11323ft 289kts
17-Nov-17 14:34 32.935394 -117.492891 330 13499ft 339kts
17-Nov-17 14:35 33.009236 -117.555543 300 15017ft 324kts
17-Nov-17 14:36 33.060136 -117.643610 301 15035ft 324kts
17-Nov-17 14:37 33.110393 -117.725725 302 16263ft 329kts
17-Nov-17 14:38 33.160510 -117.802911 301 18550ft 333kts
17-Nov-17 14:39 33.202646 -117.897961 287 20706ft 332kts
17-Nov-17 14:40 33.236787 -118.000648 286 22674ft 339kts
17-Nov-17 14:41 33.271350 -118.104917 286 23482ft 344kts
17-Nov-17 14:42 33.305769 -118.209047 285 25176ft 349kts
17-Nov-17 14:43 33.340083 -118.313246 284 26632ft 356kts
17-Nov-17 14:44 33.380079 -118.421324 296 27959ft 375kts
17-Nov-17 14:45 33.452985 -118.510876 305 29096ft 395kts
17-Nov-17 14:46 33.531703 -118.603301 304 30149ft 402kts
17-Nov-17 14:47 33.609813 -118.695148 303 31111ft 409kts
17-Nov-17 14:48 33.690045 -118.789692 303 32390ft 406kts
17-Nov-17 14:49 33.769722 -118.883876 302 33467ft 406kts
17-Nov-17 14:50 33.836048 -118.962465 301 34336ft 406kts
17-Nov-17 14:51 33.929221 -119.073181 301 35386ft 406kts
17-Nov-17 14:52 33.993707 -119.150000 301 36129ft 404kts
17-Nov-17 14:53 34.085321 -119.259470 301 36977ft 404kts
17-Nov-17 14:54 34.148056 -119.334643 301 37372ft 405kts
17-Nov-17 14:55 34.227478 -119.430014 301 37876ft 405kts
17-Nov-17 14:56 34.306795 -119.525565 301 38185ft 406kts
17-Nov-17 14:57 34.385775 -119.620948 300 38191ft 402kts
17-Nov-17 14:58 34.463828 -119.715492 300 38194ft 402kts
17-Nov-17 14:59 34.544977 -119.806299 306 38189ft 411kts
17-Nov-17 15:00 34.631816 -119.893034 305 38201ft 411kts
17-Nov-17 15:01 34.719632 -119.981018 305 38205ft 411kts
17-Nov-17 15:02 34.807408 -120.069199 306 38219ft 411kts
17-Nov-17 15:03 34.893514 -120.155858 306 38245ft 411kts
17-Nov-17 15:04 34.980660 -120.243892 306 38301ft 408kts
17-Nov-17 15:05 35.066986 -120.331350 306 38298ft 402kts
17-Nov-17 15:06 35.147647 -120.413263 306 38232ft 398kts
17-Nov-17 15:07 35.231323 -120.498402 306 38198ft 395kts
17-Nov-17 15:08 35.314113 -120.583207 306 38200ft 396kts
17-Nov-17 15:09 35.397185 -120.668403 306 38246ft 397kts
17-Nov-17 15:10 35.481984 -120.755449 306 38307ft 400kts
17-Nov-17 15:11 35.565743 -120.841653 306 38330ft 401kts
17-Nov-17 15:12 35.649357 -120.928009 306 38307ft 400kts
17-Nov-17 15:13 35.732927 -121.014590 307 38273ft 400kts
17-Nov-17 15:14 35.817260 -121.102228 308 38220ft 403kts
17-Nov-17 15:15 35.901697 -121.190246 309 37196ft 407kts
17-Nov-17 15:16 35.986897 -121.279354 309 34739ft 410kts
17-Nov-17 15:17 36.074037 -121.368463 315 31976ft 423kts
17-Nov-17 15:18 36.168769 -121.442869 319 29805ft 416kts
17-Nov-17 15:19 36.253622 -121.509222 319 27935ft 403kts
17-Nov-17 15:20 36.345111 -121.580968 320 25889ft 388kts
17-Nov-17 15:21 36.433874 -121.650721 320 23826ft 373kts
17-Nov-17 15:22 36.517907 -121.716947 321 22160ft 353kts
17-Nov-17 15:23 36.597870 -121.780176 322 20280ft 341kts
17-Nov-17 15:24 36.675450 -121.841670 322 18387ft 332kts
17-Nov-17 15:25 36.753571 -121.897521 341 16534ft 330kts
17-Nov-17 15:26 36.840646 -121.921765 343 14711ft 323kts
17-Nov-17 15:27 36.926566 -121.945821 344 12907ft 315kts
17-Nov-17 15:28 37.008799 -121.975245 341 11147ft 306kts
17-Nov-17 15:29 37.086082 -122.005436 342 10117ft 276kts
17-Nov-17 15:30 37.150492 -122.030649 343 9101ft 261kts
17-Nov-17 15:31 37.218433 -122.057247 342 7808ft 256kts
17-Nov-17 15:32 37.284441 -122.083152 342 6562ft 251kts
17-Nov-17 15:33 37.349273 -122.108697 342 5378ft 249kts
17-Nov-17 15:34 37.415124 -122.134561 341 4168ft 244kts
17-Nov-17 15:35 37.474863 -122.156068 346 4036ft 213kts
17-Nov-17 15:36 37.529594 -122.173902 325 3388ft 204kts
17-Nov-17 15:37 37.558715 -122.231965 300 2563ft 175kts
17-Nov-17 15:38 37.581001 -122.285091 300 1309ft 159kts
17-Nov-17 15:39 37.599307 -122.328863 300 569ft 141kts
17-Nov-17 15:40 37.616451 -122.369459 297 13ft 108kts
17-Nov-17 15:41 37.621715 -122.382170 297 32ft 27kts
17-Nov-17 15:42 37.621743 -122.386498 244 32ft 12kts
17-Nov-17 15:43 37.622565 -122.389452 276 30ft 12kts
17-Nov-17 15:44 37.621219 -122.390976 118 32ft 5kts
17-Nov-17 15:45 37.621142 -122.390793 117 32ft 0kts

Navigation Log

Ident Type
1. KSAN Airport
2. MELDY Fix
3. PEBLE Fix
4. SXC Navaid
5. RZS Navaid
6. SERFR Fix
7. NRRLI Fix
8. WWAVS Fix
9. EPICK Fix
10. EDDYY Fix
11. SWELS Fix
12. MENLO Fix
13. KSFO Airport